Portada
METAR-TAF:

METAR-TAF

Aeroports :

Nanning, Xina

latitud: 22-49N, longitud: 108-21E, altitud: 73 m

Observació

L'informe es va fer fa 33 minuts, a les 20:00 UTC
Vent 8 kt del Est/Nord-Est
Temperatura 17°C
Humitat 77%
Pressió 1015 hPa
Visibilitat 10 km o més
Cel cobert a una alçada de 2300 ft

METAR: ZGNN 222000Z 07004MPS 9999 OVC023 17/13 Q1015 NOSIG

Hora: 04:33 (20:33 UTC)

Pronòstic

L'informe es va fer fa 5 hores i 28 minuts, a les 15:05 UTC
Pronòstic vàlid del 22 a les 18 UTC al 23 a les 18 UTC
Vent 6 kt del Est/Nord-Est
Visibilitat: 5000 m
Núvols disperses a una alçada de 1000 ft
Cel ennuvolat a una alçada de 3000 ft
boirina

TAF: ZGNN 221505Z 2218/2318 06003MPS 5000 BR SCT010 BKN030 TX21/2307Z TN15/2222Z

Observacions i pronòstics meteorològics de més de 4000 aeroports (METAR i TAF).

Les estacions disponibles són els punts grocs i vermells al mapa.

Posi el ratolí al punt desitjat per veure el nom de l'estació.

Feu clic per veure les observacions i els pronòstics meteorològics.

Per canviar el mapa: feu clic els botons verds amb una creu de color negre per apropar; al botó verd amb un guió per allunyar la imatge; o en les fletxes verdes per a mapes adjacents.


METAR-TAF: